createdAt,value
2023-05-05T14:50:16.529Z,35.66
2023-05-05T15:10:14.667Z,38.50
2023-05-05T15:11:21.888Z,38.60
2023-05-05T15:12:15.655Z,38.80
2023-05-05T15:13:15.783Z,39.22
2023-05-05T15:14:15.639Z,39.50
2023-05-05T15:15:15.645Z,39.70
2023-05-05T15:16:15.909Z,39.80
2023-05-05T15:17:15.638Z,40.10
2023-05-05T15:18:15.613Z,40.30
2023-05-05T15:19:15.594Z,40.50
2023-05-05T15:20:15.588Z,40.70
2023-05-05T15:21:15.600Z,40.52
2023-05-05T15:22:15.559Z,41.61
2023-05-05T15:23:16.943Z,41.52
2023-05-05T15:24:15.523Z,40.83
2023-05-05T15:25:15.597Z,41.33
2023-05-05T15:26:15.569Z,40.34
2023-05-05T15:27:15.528Z,40.66
2023-05-05T15:28:15.502Z,41.05
2023-05-05T15:29:15.497Z,41.25
2023-05-05T15:30:15.518Z,41.44
2023-05-05T15:31:15.502Z,41.53
2023-05-05T15:32:15.583Z,41.63
2023-05-05T15:33:15.455Z,41.53
2023-05-05T15:34:15.532Z,41.63
2023-05-05T15:35:15.449Z,41.53
2023-05-05T15:36:15.433Z,41.74
2023-05-05T15:37:15.464Z,41.96
2023-05-05T15:38:15.381Z,42.35
2023-05-05T15:39:15.519Z,42.95
2023-05-05T15:40:15.368Z,43.57
2023-05-05T15:41:15.630Z,44.17
2023-05-05T15:42:15.366Z,44.47
2023-05-05T15:43:15.355Z,44.97
2023-05-05T15:44:15.334Z,45.37
2023-05-05T15:45:15.340Z,46.00
2023-05-05T15:46:15.334Z,46.80
2023-05-05T15:47:15.379Z,47.09
2023-05-05T15:48:15.314Z,48.22
2023-05-05T15:49:15.318Z,48.74
2023-05-05T15:50:15.328Z,49.04
2023-05-05T15:51:15.326Z,49.87
2023-05-05T15:52:15.342Z,50.37
2023-05-05T15:53:15.224Z,50.46
2023-05-05T15:54:15.325Z,50.46
2023-05-05T15:55:15.268Z,50.69
2023-05-05T15:56:15.272Z,51.09
2023-05-05T15:57:15.193Z,51.19
2023-05-05T15:58:15.196Z,51.09
2023-05-05T15:59:15.199Z,50.99
2023-05-05T16:00:15.156Z,51.21
2023-05-05T16:01:15.354Z,51.51
2023-05-05T16:02:15.199Z,51.72
2023-05-05T16:03:15.166Z,51.84
2023-05-05T16:04:15.127Z,52.44
2023-05-05T16:05:15.125Z,52.64
2023-05-05T16:06:15.112Z,52.75
2023-05-05T16:07:15.160Z,52.75
2023-05-05T16:08:15.130Z,53.07
2023-05-05T16:09:15.089Z,53.05
2023-05-05T16:10:15.043Z,53.17
2023-05-05T16:11:15.089Z,53.14
2023-05-05T16:12:15.079Z,52.84
2023-05-05T16:13:15.111Z,52.84
2023-05-05T16:14:15.062Z,52.94
2023-05-05T16:15:15.063Z,53.25
2023-05-05T16:16:15.342Z,52.75
2023-05-05T16:17:15.033Z,52.94
2023-05-05T16:18:15.032Z,53.14
2023-05-05T16:19:15.167Z,53.27
2023-05-05T16:20:15.013Z,53.37
2023-05-05T16:21:15.152Z,53.47
2023-05-05T16:22:15.001Z,53.67
2023-05-05T16:23:14.995Z,54.00
2023-05-05T16:24:14.923Z,54.40
2023-05-05T16:25:14.973Z,54.80
2023-05-05T16:26:14.952Z,54.90
2023-05-05T16:27:14.892Z,54.90
2023-05-05T16:28:15.902Z,54.88
2023-05-05T16:29:14.993Z,55.00
2023-05-05T16:30:14.891Z,55.10
2023-05-05T16:31:15.134Z,56.01
2023-05-05T16:32:15.077Z,56.03
2023-05-05T16:33:14.903Z,56.86
2023-05-05T16:34:14.836Z,57.64
2023-05-05T16:35:14.831Z,57.24
2023-05-05T16:36:14.809Z,57.87
2023-05-05T16:37:14.819Z,58.17
2023-05-05T16:38:14.839Z,58.67
2023-05-05T16:39:14.789Z,59.88
2023-05-05T16:40:14.767Z,60.58
2023-05-05T16:41:14.811Z,61.08
2023-05-05T16:42:14.786Z,61.99
2023-05-05T16:43:14.786Z,63.02
2023-05-05T16:44:14.759Z,63.53
2023-05-05T16:45:14.701Z,64.16
2023-05-05T16:46:14.694Z,64.76
2023-05-05T16:47:14.670Z,65.56
2023-05-05T16:48:14.763Z,66.00
2023-05-05T16:49:14.706Z,66.91
2023-05-05T16:50:14.693Z,67.41
2023-05-05T16:51:14.709Z,68.82
2023-05-05T16:52:14.669Z,67.71
2023-05-05T16:53:14.658Z,67.24
2023-05-05T16:54:14.679Z,67.34
2023-05-05T16:55:14.657Z,67.34
2023-05-05T16:56:14.641Z,67.74
2023-05-05T16:57:14.574Z,67.74
2023-05-05T16:58:14.583Z,68.24
2023-05-05T16:59:14.547Z,68.85
2023-05-05T17:00:14.598Z,69.65
2023-05-05T17:01:14.626Z,69.25
2023-05-05T17:02:14.555Z,68.44
2023-05-05T17:03:14.575Z,68.35
2023-05-05T17:04:14.495Z,68.85
2023-05-05T17:05:14.633Z,69.96
2023-05-05T17:06:14.515Z,71.67
2023-05-05T17:07:14.521Z,71.06
2023-05-05T17:08:14.510Z,70.36
2023-05-05T17:09:14.467Z,69.56
2023-05-05T17:10:14.449Z,69.45
2023-05-05T17:11:14.588Z,68.55
2023-05-05T17:12:14.406Z,68.35
2023-05-05T17:13:14.548Z,69.15
2023-05-05T17:14:14.452Z,69.72
2023-05-05T17:15:14.428Z,70.32
2023-05-05T17:16:14.451Z,70.53
2023-05-05T17:17:14.419Z,70.12
2023-05-05T17:18:14.435Z,70.86
2023-05-05T17:19:14.366Z,70.36
2023-05-05T17:20:14.371Z,69.72
2023-05-05T17:21:14.321Z,70.12
2023-05-05T17:22:14.303Z,70.56
2023-05-05T17:23:14.363Z,68.95
2023-05-05T17:24:14.313Z,69.18
2023-05-05T17:25:14.297Z,69.69
2023-05-05T17:26:14.272Z,70.50
2023-05-05T17:27:14.301Z,71.10
2023-05-05T17:28:14.271Z,72.31
2023-05-05T17:29:14.310Z,71.30
2023-05-05T17:30:14.245Z,69.32
2023-05-05T17:31:14.251Z,69.52
2023-05-05T17:32:14.293Z,70.32
2023-05-05T17:33:14.187Z,71.03
2023-05-05T17:34:14.278Z,71.03
2023-05-05T17:35:14.201Z,70.53
2023-05-05T17:36:14.203Z,70.62
2023-05-05T17:37:14.247Z,71.10
2023-05-05T17:38:14.156Z,71.40
2023-05-05T17:39:14.116Z,71.00
2023-05-05T17:40:14.362Z,72.81
2023-05-05T17:41:14.250Z,72.44
2023-05-05T17:42:15.873Z,72.74
2023-05-05T17:43:14.258Z,72.64
2023-05-05T17:44:14.151Z,73.05
2023-05-05T17:45:14.133Z,73.05
2023-05-05T17:46:14.123Z,72.74
2023-05-05T17:47:14.168Z,72.38
2023-05-05T17:48:14.072Z,72.58
2023-05-05T17:49:14.053Z,72.78
2023-05-05T17:50:14.048Z,73.35
2023-05-05T17:51:14.010Z,73.25
2023-05-05T17:52:14.061Z,73.45
2023-05-05T17:53:14.306Z,73.25
2023-05-05T17:54:14.003Z,72.85
2023-05-05T17:55:14.111Z,71.84
2023-05-05T17:56:13.996Z,72.14
2023-05-05T17:57:14.926Z,72.64
2023-05-05T17:58:13.935Z,72.85
2023-05-05T17:59:13.959Z,72.24
2023-05-05T18:00:13.975Z,72.24
2023-05-05T18:01:13.976Z,72.34
2023-05-05T18:02:14.014Z,72.04
2023-05-05T18:03:14.017Z,72.54
2023-05-05T18:04:13.899Z,72.34
2023-05-05T18:05:13.878Z,72.54
2023-05-05T18:06:13.911Z,72.54
2023-05-05T18:07:13.900Z,72.44
2023-05-05T18:08:13.852Z,72.74
2023-05-05T18:09:13.892Z,72.64
2023-05-05T18:10:13.929Z,72.14
2023-05-05T18:11:13.825Z,72.34
2023-05-05T18:12:13.805Z,71.23
2023-05-05T18:13:13.917Z,70.83
2023-05-05T18:14:13.767Z,70.39
2023-05-05T18:15:13.925Z,70.32
2023-05-05T18:16:13.904Z,70.02
2023-05-05T18:17:13.803Z,70.22
2023-05-05T18:18:13.786Z,70.73
2023-05-05T18:19:13.716Z,70.12
2023-05-05T18:20:13.786Z,70.42
2023-05-05T18:21:13.786Z,69.92
2023-05-05T18:22:13.771Z,70.32
2023-05-05T18:23:13.678Z,69.82
2023-05-05T18:24:19.996Z,69.92
2023-05-05T18:25:13.974Z,70.32
2023-05-05T18:26:13.703Z,70.53
2023-05-05T18:27:13.627Z,70.42
2023-05-05T18:28:13.670Z,70.22
2023-05-05T18:29:13.611Z,70.53
2023-05-05T18:30:13.617Z,70.53
2023-05-05T18:31:13.720Z,70.22
2023-05-05T18:32:13.701Z,70.22
2023-05-05T18:33:13.596Z,70.32
2023-05-05T18:34:13.585Z,70.76
2023-05-05T18:35:13.659Z,71.17
2023-05-05T18:36:15.401Z,71.77
2023-05-05T18:37:13.623Z,71.67
2023-05-05T18:38:13.543Z,72.27
2023-05-05T18:39:13.515Z,72.07
2023-05-05T18:40:13.579Z,72.07
2023-05-05T18:41:13.495Z,71.97
2023-05-05T18:42:13.821Z,71.97
2023-05-05T18:43:13.541Z,71.37
2023-05-05T18:44:13.494Z,71.57
2023-05-05T18:45:13.480Z,71.57
2023-05-05T18:46:13.505Z,71.80
2023-05-05T18:47:13.690Z,71.91
2023-05-05T18:48:13.438Z,71.80
2023-05-05T18:49:13.395Z,71.91
2023-05-05T18:50:13.395Z,72.20
2023-05-05T18:51:13.429Z,72.31
2023-05-05T18:52:13.932Z,72.41
2023-05-05T18:53:13.414Z,72.41
2023-05-05T18:54:13.363Z,72.41
2023-05-05T18:55:13.405Z,72.51
2023-05-05T18:56:13.352Z,72.20
2023-05-05T18:57:13.316Z,72.61
2023-05-05T18:58:13.311Z,72.61
2023-05-05T18:59:13.643Z,72.51
2023-05-05T19:00:13.385Z,73.01
2023-05-05T19:01:13.357Z,72.81
2023-05-05T19:02:13.392Z,72.61
2023-05-05T19:03:14.087Z,72.51
2023-05-05T19:04:26.649Z,72.61
2023-05-05T19:05:13.247Z,72.71
2023-05-05T19:06:13.219Z,73.01
2023-05-05T19:07:23.884Z,72.91
2023-05-05T19:08:13.544Z,73.32
2023-05-05T19:09:13.281Z,72.71
2023-05-05T19:10:13.248Z,73.52
2023-05-05T19:11:13.424Z,73.32
2023-05-05T19:12:13.156Z,73.32
2023-05-05T19:13:13.212Z,73.82
2023-05-05T19:14:13.142Z,73.92
2023-05-05T19:15:13.182Z,74.16
2023-05-05T19:16:13.177Z,74.46
2023-05-05T19:17:13.114Z,74.46
2023-05-05T19:18:13.167Z,74.56
2023-05-05T19:19:13.161Z,74.96
2023-05-05T19:20:13.133Z,75.37
2023-05-05T19:21:13.168Z,75.77
2023-05-05T19:22:13.341Z,76.18
2023-05-05T19:23:13.102Z,76.51
2023-05-05T19:24:13.116Z,76.82
2023-05-05T19:25:13.053Z,77.02
2023-05-05T19:26:13.066Z,77.42
2023-05-05T19:27:15.380Z,77.32
2023-05-05T19:28:13.070Z,77.42
2023-05-05T19:29:13.039Z,77.42
2023-05-05T19:30:12.968Z,77.73
2023-05-05T19:31:13.001Z,77.93
2023-05-05T19:32:13.255Z,78.03
2023-05-05T19:33:12.955Z,78.23
2023-05-05T19:34:12.950Z,78.63
2023-05-05T19:35:13.268Z,78.63
2023-05-05T19:36:12.952Z,78.63
2023-05-05T19:37:12.917Z,78.67
2023-05-05T19:38:12.913Z,78.74
2023-05-05T19:39:15.257Z,78.67
2023-05-05T19:40:13.181Z,78.97
2023-05-05T19:41:13.690Z,79.17
2023-05-05T19:42:12.858Z,79.38
2023-05-05T19:43:12.988Z,79.28
2023-05-05T19:44:12.860Z,79.48
2023-05-05T19:45:12.914Z,79.79
2023-05-05T19:46:12.978Z,79.79
2023-05-05T19:47:14.460Z,79.79
2023-05-05T19:48:12.880Z,79.68
2023-05-05T19:49:12.771Z,79.58
2023-05-05T19:50:12.785Z,79.48
2023-05-05T19:51:12.795Z,79.48
2023-05-05T19:52:12.751Z,79.68
2023-05-05T19:53:12.729Z,79.79
2023-05-05T19:54:12.789Z,80.08
2023-05-05T19:55:12.751Z,80.12
2023-05-05T19:56:12.703Z,79.88
2023-05-05T19:57:12.749Z,80.22
2023-05-05T19:58:12.672Z,80.53
2023-05-05T19:59:12.665Z,80.32
2023-05-05T20:00:12.656Z,80.22
2023-05-05T20:01:12.822Z,80.22
2023-05-05T20:02:12.747Z,80.39
2023-05-05T20:03:12.741Z,80.43
2023-05-05T20:04:12.624Z,80.53
2023-05-05T20:05:12.676Z,80.83
2023-05-05T20:06:12.639Z,81.13
2023-05-05T20:07:12.643Z,81.34
2023-05-05T20:08:12.595Z,81.34
2023-05-05T20:09:12.599Z,81.34
2023-05-05T20:10:12.561Z,81.34
2023-05-05T20:11:12.554Z,81.54
2023-05-05T20:12:12.546Z,81.64
2023-05-05T20:13:12.609Z,81.74
2023-05-05T20:14:12.514Z,81.94
2023-05-05T20:15:12.543Z,81.74
2023-05-05T20:16:12.587Z,81.64
2023-05-05T20:17:12.528Z,81.88
2023-05-05T20:18:12.505Z,82.08
2023-05-05T20:19:12.511Z,82.18
2023-05-05T20:20:12.662Z,82.39
2023-05-05T20:21:12.433Z,82.59
2023-05-05T20:22:12.481Z,82.69
2023-05-05T20:23:12.427Z,82.89
2023-05-05T20:24:12.531Z,82.89
2023-05-05T20:25:12.429Z,82.89
2023-05-05T20:26:12.452Z,82.79
2023-05-05T20:27:12.468Z,82.93
2023-05-05T20:28:12.410Z,82.89
2023-05-05T20:29:12.420Z,82.69
2023-05-05T20:30:12.425Z,82.49
2023-05-05T20:31:12.564Z,82.69
2023-05-05T20:32:12.386Z,83.13
2023-05-05T20:33:12.304Z,83.33
2023-05-05T20:34:12.358Z,83.54
2023-05-05T20:35:13.174Z,83.74
2023-05-05T20:36:12.334Z,83.94
2023-05-05T20:37:13.781Z,84.25
2023-05-05T20:38:12.279Z,84.55
2023-05-05T20:39:12.249Z,84.65
2023-05-05T20:40:12.446Z,84.79
2023-05-05T20:41:12.358Z,84.89
2023-05-05T20:42:12.246Z,84.99
2023-05-05T20:43:12.216Z,84.99
2023-05-05T20:44:12.208Z,84.95
2023-05-05T20:45:12.212Z,84.99
2023-05-05T20:46:13.213Z,84.99
2023-05-05T20:47:12.367Z,84.99
2023-05-05T20:48:12.204Z,85.19
2023-05-05T20:49:12.182Z,85.30
2023-05-05T20:50:12.344Z,85.39
2023-05-05T20:51:12.155Z,85.70
2023-05-05T20:52:12.112Z,85.90
2023-05-05T20:53:12.120Z,86.10
2023-05-05T20:54:12.128Z,86.00
2023-05-05T20:55:12.121Z,86.00
2023-05-05T20:56:12.091Z,86.21
2023-05-05T20:57:12.065Z,86.31
2023-05-05T20:58:12.077Z,86.51
2023-05-05T20:59:12.056Z,86.51
2023-05-05T21:00:12.223Z,86.61
2023-05-05T21:01:12.076Z,86.65
2023-05-05T21:02:12.067Z,86.71
2023-05-05T21:03:12.058Z,86.85
2023-05-05T21:04:12.043Z,87.05
2023-05-05T21:05:12.043Z,87.16
2023-05-05T21:06:12.049Z,87.16
2023-05-05T21:07:11.965Z,87.36
2023-05-05T21:08:12.003Z,87.46
2023-05-05T21:09:11.968Z,87.46
2023-05-05T21:10:12.158Z,87.56
2023-05-05T21:11:12.039Z,87.36
2023-05-05T21:12:11.960Z,87.36
2023-05-05T21:13:11.933Z,87.26
2023-05-05T21:14:11.900Z,87.16
2023-05-05T21:15:12.085Z,87.36
2023-05-05T21:16:11.920Z,87.16
2023-05-05T21:17:11.908Z,86.85
2023-05-05T21:18:11.933Z,86.96
2023-05-05T21:19:11.887Z,86.96
2023-05-05T21:20:12.231Z,86.76
2023-05-05T21:21:11.822Z,86.85
2023-05-05T21:22:11.899Z,86.96
2023-05-05T21:23:11.823Z,87.05
2023-05-05T21:24:11.830Z,87.16
2023-05-05T21:25:11.773Z,87.16
2023-05-05T21:26:11.771Z,87.26
2023-05-05T21:27:11.763Z,87.26
2023-05-05T21:28:11.770Z,87.56
2023-05-05T21:29:11.783Z,87.66
2023-05-05T21:30:11.833Z,87.87
2023-05-05T21:31:21.719Z,88.17
2023-05-05T21:32:11.781Z,88.57
2023-05-05T21:33:11.804Z,88.92
2023-05-05T21:34:11.692Z,89.02
2023-05-05T21:35:11.700Z,89.23
2023-05-05T21:36:11.691Z,89.53
2023-05-05T21:37:11.661Z,89.94
2023-05-05T21:38:11.678Z,90.34
2023-05-05T21:39:11.640Z,90.64
2023-05-05T21:40:11.948Z,90.95
2023-05-05T21:41:11.625Z,91.05
2023-05-05T21:42:11.602Z,91.25
2023-05-05T21:43:11.628Z,91.15
2023-05-05T21:44:11.604Z,91.25
2023-05-05T21:45:11.837Z,91.25
2023-05-05T21:46:11.636Z,91.25
2023-05-05T21:47:11.584Z,91.35
2023-05-05T21:48:11.653Z,91.70
2023-05-05T21:49:11.579Z,92.00
2023-05-05T21:50:11.775Z,92.21
2023-05-05T21:51:11.541Z,92.31
2023-05-05T21:52:11.543Z,92.61
2023-05-05T21:53:11.517Z,92.82
2023-05-05T21:54:11.518Z,93.02
2023-05-05T21:55:11.488Z,93.26
2023-05-05T21:56:11.511Z,93.16
2023-05-05T21:57:11.449Z,93.26
2023-05-05T21:58:11.476Z,93.26
2023-05-05T21:59:11.463Z,93.57
2023-05-05T22:00:11.716Z,93.87
2023-05-05T22:01:11.463Z,94.07
2023-05-05T22:02:11.401Z,94.22
2023-05-05T22:03:11.549Z,94.27
2023-05-05T22:04:12.101Z,94.42
2023-05-05T22:05:11.390Z,94.42
2023-05-05T22:06:11.362Z,94.53
2023-05-05T22:07:11.435Z,94.62
2023-05-05T22:08:11.354Z,94.73
2023-05-05T22:09:11.419Z,94.62
2023-05-05T22:10:11.691Z,94.53
2023-05-05T22:11:11.371Z,94.53
2023-05-05T22:12:11.322Z,94.53
2023-05-05T22:13:11.383Z,94.53
2023-05-05T22:14:11.350Z,94.73
2023-05-05T22:15:11.521Z,94.93
2023-05-05T22:16:11.339Z,95.03
2023-05-05T22:17:11.327Z,94.93
2023-05-05T22:18:11.306Z,95.03
2023-05-05T22:19:11.256Z,95.18
2023-05-05T22:20:11.345Z,95.03
2023-05-05T22:21:11.226Z,95.03
2023-05-05T22:22:11.209Z,95.03
2023-05-05T22:23:11.223Z,94.93
2023-05-05T22:24:11.184Z,94.93
2023-05-05T22:25:11.388Z,94.83
2023-05-05T22:26:11.228Z,94.93
2023-05-05T22:27:11.149Z,95.03
2023-05-05T22:28:11.147Z,95.13
2023-05-05T22:29:11.266Z,95.23
2023-05-05T22:30:11.127Z,95.34
2023-05-05T22:31:11.176Z,95.34
2023-05-05T22:32:11.123Z,95.43
2023-05-05T22:33:11.107Z,95.34
2023-05-05T22:34:11.126Z,95.34
2023-05-05T22:35:11.287Z,95.23
2023-05-05T22:36:11.076Z,95.23
2023-05-05T22:37:11.121Z,95.34
2023-05-05T22:38:11.066Z,95.34
2023-05-05T22:39:11.043Z,95.34
2023-05-05T22:40:11.105Z,95.38
2023-05-05T22:41:10.999Z,95.38
2023-05-05T22:42:10.990Z,95.48
2023-05-05T22:43:10.999Z,95.58
2023-05-05T22:44:10.993Z,95.58
2023-05-05T22:45:11.206Z,95.58
2023-05-05T22:46:10.969Z,95.68
2023-05-05T22:47:11.091Z,95.68
2023-05-05T22:48:10.981Z,95.68
2023-05-05T22:49:11.106Z,95.79
2023-05-05T22:50:10.963Z,95.89
2023-05-05T22:51:10.926Z,95.99
2023-05-05T22:52:10.905Z,96.14
2023-05-05T22:53:10.915Z,96.23
2023-05-05T22:54:10.914Z,96.44
2023-05-05T22:55:11.099Z,96.34
2023-05-05T22:56:10.879Z,96.23
2023-05-05T22:57:10.945Z,96.34
2023-05-05T22:58:10.849Z,96.44
2023-05-05T22:59:10.860Z,96.34
2023-05-05T23:00:10.833Z,96.44
2023-05-05T23:01:10.953Z,96.44
2023-05-05T23:02:10.826Z,96.34
2023-05-05T23:03:10.800Z,96.34
2023-05-05T23:04:10.825Z,96.14
2023-05-05T23:05:11.038Z,96.03
2023-05-05T23:06:10.816Z,96.03
2023-05-05T23:07:10.775Z,96.14
2023-05-05T23:08:10.757Z,96.14
2023-05-05T23:09:11.425Z,96.14
2023-05-05T23:10:10.735Z,96.23
2023-05-05T23:11:10.737Z,96.23
2023-05-05T23:12:10.722Z,96.23
2023-05-05T23:13:10.734Z,96.28
2023-05-05T23:14:10.672Z,96.38
2023-05-05T23:15:11.213Z,96.34
2023-05-05T23:16:11.494Z,96.28
2023-05-05T23:17:10.668Z,96.18
2023-05-05T23:18:11.481Z,96.18
2023-05-05T23:19:10.616Z,96.28
2023-05-05T23:20:10.604Z,96.28
2023-05-05T23:21:10.647Z,96.38
2023-05-05T23:22:10.613Z,96.48
2023-05-05T23:23:10.606Z,96.48
2023-05-05T23:24:10.569Z,96.59
2023-05-05T23:25:10.905Z,96.59
2023-05-05T23:26:10.556Z,96.69
2023-05-05T23:27:10.550Z,96.59
2023-05-05T23:28:11.496Z,96.59
2023-05-05T23:29:10.533Z,96.59
2023-05-05T23:30:10.554Z,96.69
2023-05-05T23:31:10.557Z,96.69
2023-05-05T23:32:10.501Z,96.79
2023-05-05T23:33:10.494Z,96.79
2023-05-05T23:34:10.515Z,96.79
2023-05-05T23:35:10.715Z,96.89
2023-05-05T23:36:10.508Z,97.04
2023-05-05T23:37:10.494Z,97.14
2023-05-05T23:38:10.458Z,97.24
2023-05-05T23:39:10.444Z,97.24
2023-05-05T23:40:10.758Z,97.34
2023-05-05T23:41:10.403Z,97.34
2023-05-05T23:42:10.392Z,97.44
2023-05-05T23:43:10.388Z,97.44
2023-05-05T23:44:10.428Z,97.24
2023-05-05T23:45:10.590Z,97.14
2023-05-05T23:46:10.416Z,97.04
2023-05-05T23:47:10.343Z,96.94
2023-05-05T23:48:10.372Z,96.94
2023-05-05T23:49:11.279Z,96.94
2023-05-05T23:50:10.348Z,96.83
2023-05-05T23:51:10.333Z,96.73
2023-05-05T23:52:10.271Z,96.53
2023-05-05T23:53:10.342Z,96.53
2023-05-05T23:54:10.316Z,96.63
2023-05-05T23:55:10.550Z,96.53
2023-05-05T23:56:10.255Z,96.43
2023-05-05T23:57:10.246Z,96.33
2023-05-05T23:58:10.239Z,96.23
2023-05-05T23:59:10.195Z,96.12
